sensor_id;sensor_type;location;lat;lon;timestamp;P1;durP1;ratioP1;P2;durP2;ratioP2
39792;SDS011;26080;42.264;24.536;2023-02-28T00:00:32;6.15;;;2.25;;
39792;SDS011;26080;42.264;24.536;2023-02-28T00:02:58;2.17;;;1.25;;
39792;SDS011;26080;42.264;24.536;2023-02-28T00:05:24;4.38;;;1.17;;
39792;SDS011;26080;42.264;24.536;2023-02-28T00:07:51;2.17;;;1.98;;
39792;SDS011;26080;42.264;24.536;2023-02-28T00:10:18;2.80;;;1.52;;
39792;SDS011;26080;42.264;24.536;2023-02-28T00:12:52;2.95;;;2.35;;
39792;SDS011;26080;42.264;24.536;2023-02-28T00:15:19;1.88;;;1.02;;
39792;SDS011;26080;42.264;24.536;2023-02-28T00:17:44;2.67;;;1.20;;
39792;SDS011;26080;42.264;24.536;2023-02-28T00:20:10;2.92;;;1.30;;
39792;SDS011;26080;42.264;24.536;2023-02-28T00:22:38;2.67;;;1.90;;
39792;SDS011;26080;42.264;24.536;2023-02-28T00:25:05;3.42;;;1.88;;
39792;SDS011;26080;42.264;24.536;2023-02-28T00:27:35;1.10;;;1.00;;
39792;SDS011;26080;42.264;24.536;2023-02-28T00:30:01;4.72;;;2.17;;
39792;SDS011;26080;42.264;24.536;2023-02-28T00:32:31;5.25;;;1.10;;
39792;SDS011;26080;42.264;24.536;2023-02-28T00:34:57;2.75;;;1.63;;
39792;SDS011;26080;42.264;24.536;2023-02-28T00:37:22;5.57;;;2.13;;
39792;SDS011;26080;42.264;24.536;2023-02-28T00:39:48;8.07;;;2.95;;
39792;SDS011;26080;42.264;24.536;2023-02-28T00:42:13;14.93;;;3.33;;
39792;SDS011;26080;42.264;24.536;2023-02-28T00:44:39;3.83;;;1.08;;
39792;SDS011;26080;42.264;24.536;2023-02-28T00:47:04;3.83;;;0.70;;
39792;SDS011;26080;42.264;24.536;2023-02-28T00:49:30;1.33;;;1.23;;
39792;SDS011;26080;42.264;24.536;2023-02-28T00:51:55;1.15;;;1.05;;
39792;SDS011;26080;42.264;24.536;2023-02-28T00:54:22;2.70;;;1.08;;
39792;SDS011;26080;42.264;24.536;2023-02-28T00:56:47;3.58;;;1.20;;
39792;SDS011;26080;42.264;24.536;2023-02-28T00:59:14;1.77;;;1.67;;
39792;SDS011;26080;42.264;24.536;2023-02-28T01:01:41;0.90;;;0.80;;
39792;SDS011;26080;42.264;24.536;2023-02-28T01:04:07;2.67;;;1.55;;
39792;SDS011;26080;42.264;24.536;2023-02-28T01:06:32;3.22;;;1.75;;
39792;SDS011;26080;42.264;24.536;2023-02-28T01:08:59;1.52;;;0.85;;
39792;SDS011;26080;42.264;24.536;2023-02-28T01:11:25;3.00;;;1.80;;
39792;SDS011;26080;42.264;24.536;2023-02-28T01:13:51;0.32;;;0.32;;
39792;SDS011;26080;42.264;24.536;2023-02-28T01:16:17;2.92;;;1.80;;
39792;SDS011;26080;42.264;24.536;2023-02-28T01:18:43;0.85;;;0.65;;
39792;SDS011;26080;42.264;24.536;2023-02-28T01:21:13;0.38;;;0.38;;
39792;SDS011;26080;42.264;24.536;2023-02-28T01:23:40;11.00;;;1.80;;
39792;SDS011;26080;42.264;24.536;2023-02-28T01:26:07;0.82;;;0.80;;
39792;SDS011;26080;42.264;24.536;2023-02-28T01:28:35;0.77;;;0.57;;
39792;SDS011;26080;42.264;24.536;2023-02-28T01:31:00;2.00;;;1.35;;
39792;SDS011;26080;42.264;24.536;2023-02-28T01:33:26;1.08;;;0.98;;
39792;SDS011;26080;42.264;24.536;2023-02-28T01:38:31;5.78;;;2.13;;
39792;SDS011;26080;42.264;24.536;2023-02-28T01:40:58;2.88;;;1.75;;
39792;SDS011;26080;42.264;24.536;2023-02-28T01:43:24;2.20;;;2.00;;
39792;SDS011;26080;42.264;24.536;2023-02-28T01:45:55;1.80;;;0.95;;
39792;SDS011;26080;42.264;24.536;2023-02-28T01:48:24;1.00;;;0.88;;
39792;SDS011;26080;42.264;24.536;2023-02-28T01:50:52;3.05;;;0.90;;
39792;SDS011;26080;42.264;24.536;2023-02-28T01:53:23;2.53;;;1.40;;
39792;SDS011;26080;42.264;24.536;2023-02-28T01:55:54;1.20;;;1.10;;
39792;SDS011;26080;42.264;24.536;2023-02-28T01:58:20;0.73;;;0.73;;
39792;SDS011;26080;42.264;24.536;2023-02-28T02:00:45;1.30;;;0.98;;
39792;SDS011;26080;42.264;24.536;2023-02-28T02:03:14;0.82;;;0.65;;
39792;SDS011;26080;42.264;24.536;2023-02-28T02:05:46;4.32;;;1.15;;
39792;SDS011;26080;42.264;24.536;2023-02-28T02:08:20;4.30;;;1.33;;
39792;SDS011;26080;42.264;24.536;2023-02-28T02:10:58;0.65;;;0.55;;
39792;SDS011;26080;42.264;24.536;2023-02-28T02:25:11;2.42;;;1.00;;
39792;SDS011;26080;42.264;24.536;2023-02-28T02:30:44;3.45;;;2.75;;
39792;SDS011;26080;42.264;24.536;2023-02-28T02:38:31;5.00;;;1.95;;
39792;SDS011;26080;42.264;24.536;2023-02-28T02:46:19;3.30;;;2.28;;
39792;SDS011;26080;42.264;24.536;2023-02-28T02:48:49;5.20;;;2.20;;
39792;SDS011;26080;42.264;24.536;2023-02-28T02:51:19;1.50;;;1.40;;
39792;SDS011;26080;42.264;24.536;2023-02-28T02:53:48;2.63;;;1.83;;
39792;SDS011;26080;42.264;24.536;2023-02-28T02:56:20;2.10;;;1.58;;
39792;SDS011;26080;42.264;24.536;2023-02-28T02:58:49;3.33;;;1.02;;
39792;SDS011;26080;42.264;24.536;2023-02-28T03:01:18;2.65;;;1.60;;
39792;SDS011;26080;42.264;24.536;2023-02-28T03:03:53;3.83;;;1.38;;
39792;SDS011;26080;42.264;24.536;2023-02-28T03:06:21;7.20;;;1.50;;
39792;SDS011;26080;42.264;24.536;2023-02-28T03:08:46;2.10;;;1.10;;
39792;SDS011;26080;42.264;24.536;2023-02-28T03:11:12;2.47;;;1.08;;
39792;SDS011;26080;42.264;24.536;2023-02-28T03:22:05;2.33;;;1.75;;
39792;SDS011;26080;42.264;24.536;2023-02-28T03:27:31;4.22;;;1.42;;
39792;SDS011;26080;42.264;24.536;2023-02-28T03:33:19;2.72;;;1.58;;
39792;SDS011;26080;42.264;24.536;2023-02-28T03:35:54;5.47;;;2.45;;
39792;SDS011;26080;42.264;24.536;2023-02-28T03:41:42;2.15;;;1.75;;
39792;SDS011;26080;42.264;24.536;2023-02-28T03:44:25;1.95;;;1.23;;
39792;SDS011;26080;42.264;24.536;2023-02-28T03:47:02;4.35;;;1.77;;
39792;SDS011;26080;42.264;24.536;2023-02-28T03:49:32;2.90;;;2.13;;
39792;SDS011;26080;42.264;24.536;2023-02-28T03:52:02;7.35;;;2.35;;
39792;SDS011;26080;42.264;24.536;2023-02-28T03:54:34;3.65;;;3.35;;
39792;SDS011;26080;42.264;24.536;2023-02-28T03:57:10;5.30;;;2.58;;
39792;SDS011;26080;42.264;24.536;2023-02-28T03:59:44;2.92;;;2.22;;
39792;SDS011;26080;42.264;24.536;2023-02-28T04:02:16;4.97;;;3.13;;
39792;SDS011;26080;42.264;24.536;2023-02-28T04:04:41;1.80;;;1.50;;
39792;SDS011;26080;42.264;24.536;2023-02-28T04:07:13;3.10;;;2.03;;
39792;SDS011;26080;42.264;24.536;2023-02-28T04:09:39;2.08;;;1.88;;
39792;SDS011;26080;42.264;24.536;2023-02-28T04:12:05;5.90;;;1.92;;
39792;SDS011;26080;42.264;24.536;2023-02-28T04:14:30;6.85;;;2.75;;
39792;SDS011;26080;42.264;24.536;2023-02-28T04:16:56;2.30;;;1.77;;
39792;SDS011;26080;42.264;24.536;2023-02-28T04:19:22;4.25;;;2.13;;
39792;SDS011;26080;42.264;24.536;2023-02-28T04:21:48;6.35;;;3.15;;
39792;SDS011;26080;42.264;24.536;2023-02-28T04:24:16;1.98;;;1.75;;
39792;SDS011;26080;42.264;24.536;2023-02-28T04:26:49;3.58;;;2.55;;
39792;SDS011;26080;42.264;24.536;2023-02-28T04:29:21;7.07;;;2.95;;
39792;SDS011;26080;42.264;24.536;2023-02-28T04:31:50;5.97;;;2.08;;
39792;SDS011;26080;42.264;24.536;2023-02-28T04:34:18;2.38;;;2.15;;
39792;SDS011;26080;42.264;24.536;2023-02-28T04:36:44;2.75;;;2.40;;
39792;SDS011;26080;42.264;24.536;2023-02-28T04:39:10;3.58;;;2.83;;
39792;SDS011;26080;42.264;24.536;2023-02-28T04:41:36;2.88;;;1.80;;
39792;SDS011;26080;42.264;24.536;2023-02-28T04:44:02;2.42;;;1.70;;
39792;SDS011;26080;42.264;24.536;2023-02-28T04:46:27;5.38;;;2.03;;
39792;SDS011;26080;42.264;24.536;2023-02-28T04:48:53;3.97;;;2.85;;
39792;SDS011;26080;42.264;24.536;2023-02-28T04:51:19;5.55;;;3.00;;
39792;SDS011;26080;42.264;24.536;2023-02-28T04:53:45;2.50;;;2.25;;
39792;SDS011;26080;42.264;24.536;2023-02-28T04:56:12;3.92;;;2.15;;
39792;SDS011;26080;42.264;24.536;2023-02-28T04:58:39;3.85;;;2.72;;
39792;SDS011;26080;42.264;24.536;2023-02-28T05:01:05;3.10;;;1.85;;
39792;SDS011;26080;42.264;24.536;2023-02-28T05:03:40;4.82;;;2.38;;
39792;SDS011;26080;42.264;24.536;2023-02-28T05:06:07;2.17;;;1.55;;
39792;SDS011;26080;42.264;24.536;2023-02-28T05:08:33;4.68;;;2.83;;
39792;SDS011;26080;42.264;24.536;2023-02-28T05:10:59;2.70;;;2.47;;
39792;SDS011;26080;42.264;24.536;2023-02-28T05:13:28;4.25;;;2.45;;
39792;SDS011;26080;42.264;24.536;2023-02-28T05:15:54;3.42;;;2.58;;
39792;SDS011;26080;42.264;24.536;2023-02-28T05:18:20;4.30;;;2.50;;
39792;SDS011;26080;42.264;24.536;2023-02-28T05:20:45;5.57;;;2.55;;
39792;SDS011;26080;42.264;24.536;2023-02-28T05:23:11;1.65;;;1.55;;
39792;SDS011;26080;42.264;24.536;2023-02-28T05:25:38;3.25;;;1.95;;
39792;SDS011;26080;42.264;24.536;2023-02-28T05:28:04;3.25;;;2.20;;
39792;SDS011;26080;42.264;24.536;2023-02-28T05:30:29;3.67;;;2.95;;
39792;SDS011;26080;42.264;24.536;2023-02-28T05:32:56;6.93;;;3.00;;
39792;SDS011;26080;42.264;24.536;2023-02-28T05:35:22;1.95;;;1.75;;
39792;SDS011;26080;42.264;24.536;2023-02-28T05:37:48;3.00;;;1.65;;
39792;SDS011;26080;42.264;24.536;2023-02-28T05:40:13;3.38;;;1.48;;
39792;SDS011;26080;42.264;24.536;2023-02-28T05:42:40;2.88;;;2.20;;
39792;SDS011;26080;42.264;24.536;2023-02-28T05:45:06;4.03;;;2.95;;
39792;SDS011;26080;42.264;24.536;2023-02-28T05:47:33;5.93;;;2.30;;
39792;SDS011;26080;42.264;24.536;2023-02-28T05:49:58;5.45;;;2.65;;
39792;SDS011;26080;42.264;24.536;2023-02-28T05:52:25;2.60;;;2.38;;
39792;SDS011;26080;42.264;24.536;2023-02-28T05:54:50;3.42;;;2.72;;
39792;SDS011;26080;42.264;24.536;2023-02-28T05:57:16;2.28;;;1.83;;
39792;SDS011;26080;42.264;24.536;2023-02-28T05:59:41;4.40;;;3.17;;
39792;SDS011;26080;42.264;24.536;2023-02-28T06:02:17;2.97;;;2.70;;
39792;SDS011;26080;42.264;24.536;2023-02-28T06:04:43;4.13;;;2.90;;
39792;SDS011;26080;42.264;24.536;2023-02-28T06:07:09;8.75;;;3.63;;
39792;SDS011;26080;42.264;24.536;2023-02-28T06:09:35;4.20;;;2.95;;
39792;SDS011;26080;42.264;24.536;2023-02-28T06:12:01;2.65;;;1.92;;
39792;SDS011;26080;42.264;24.536;2023-02-28T06:14:30;4.50;;;2.97;;
39792;SDS011;26080;42.264;24.536;2023-02-28T06:16:57;4.38;;;2.65;;
39792;SDS011;26080;42.264;24.536;2023-02-28T06:19:23;9.90;;;2.60;;
39792;SDS011;26080;42.264;24.536;2023-02-28T06:21:50;3.97;;;2.08;;
39792;SDS011;26080;42.264;24.536;2023-02-28T06:24:18;3.83;;;2.28;;
39792;SDS011;26080;42.264;24.536;2023-02-28T06:26:44;4.10;;;3.03;;
39792;SDS011;26080;42.264;24.536;2023-02-28T06:29:10;2.85;;;1.85;;
39792;SDS011;26080;42.264;24.536;2023-02-28T06:31:36;3.45;;;1.95;;
39792;SDS011;26080;42.264;24.536;2023-02-28T06:34:03;4.93;;;2.38;;
39792;SDS011;26080;42.264;24.536;2023-02-28T06:36:29;6.78;;;2.67;;
39792;SDS011;26080;42.264;24.536;2023-02-28T06:38:54;3.83;;;2.22;;
39792;SDS011;26080;42.264;24.536;2023-02-28T06:41:24;6.95;;;2.72;;
39792;SDS011;26080;42.264;24.536;2023-02-28T06:43:50;2.58;;;2.05;;
39792;SDS011;26080;42.264;24.536;2023-02-28T06:46:19;5.00;;;2.75;;
39792;SDS011;26080;42.264;24.536;2023-02-28T06:48:45;1.70;;;1.60;;
39792;SDS011;26080;42.264;24.536;2023-02-28T06:51:16;6.50;;;3.30;;
39792;SDS011;26080;42.264;24.536;2023-02-28T06:53:47;4.90;;;2.50;;
39792;SDS011;26080;42.264;24.536;2023-02-28T06:56:13;5.78;;;4.30;;
39792;SDS011;26080;42.264;24.536;2023-02-28T06:58:40;6.00;;;2.53;;
39792;SDS011;26080;42.264;24.536;2023-02-28T07:01:07;3.40;;;2.50;;
39792;SDS011;26080;42.264;24.536;2023-02-28T07:03:34;4.90;;;2.42;;
39792;SDS011;26080;42.264;24.536;2023-02-28T07:06:00;4.68;;;3.65;;
39792;SDS011;26080;42.264;24.536;2023-02-28T07:08:26;3.80;;;3.08;;
39792;SDS011;26080;42.264;24.536;2023-02-28T07:10:53;5.45;;;3.08;;
39792;SDS011;26080;42.264;24.536;2023-02-28T07:13:22;2.63;;;2.42;;
39792;SDS011;26080;42.264;24.536;2023-02-28T07:16:08;4.47;;;2.15;;
39792;SDS011;26080;42.264;24.536;2023-02-28T07:18:35;3.38;;;3.08;;
39792;SDS011;26080;42.264;24.536;2023-02-28T07:21:02;2.63;;;1.75;;
39792;SDS011;26080;42.264;24.536;2023-02-28T07:23:29;3.78;;;2.53;;
39792;SDS011;26080;42.264;24.536;2023-02-28T07:25:54;1.70;;;1.58;;
39792;SDS011;26080;42.264;24.536;2023-02-28T07:28:20;6.25;;;2.33;;
39792;SDS011;26080;42.264;24.536;2023-02-28T07:30:45;4.95;;;3.08;;
39792;SDS011;26080;42.264;24.536;2023-02-28T07:33:11;4.38;;;2.60;;
39792;SDS011;26080;42.264;24.536;2023-02-28T07:35:36;5.97;;;4.18;;
39792;SDS011;26080;42.264;24.536;2023-02-28T07:38:02;3.65;;;3.05;;
39792;SDS011;26080;42.264;24.536;2023-02-28T07:40:28;9.90;;;3.10;;
39792;SDS011;26080;42.264;24.536;2023-02-28T07:42:53;3.25;;;2.90;;
39792;SDS011;26080;42.264;24.536;2023-02-28T07:45:19;3.05;;;2.50;;
39792;SDS011;26080;42.264;24.536;2023-02-28T07:47:45;3.45;;;1.83;;
39792;SDS011;26080;42.264;24.536;2023-02-28T07:50:12;7.25;;;2.78;;
39792;SDS011;26080;42.264;24.536;2023-02-28T07:52:39;3.65;;;2.13;;
39792;SDS011;26080;42.264;24.536;2023-02-28T07:55:06;3.42;;;3.13;;
39792;SDS011;26080;42.264;24.536;2023-02-28T07:57:32;6.07;;;2.83;;
39792;SDS011;26080;42.264;24.536;2023-02-28T07:59:58;3.03;;;2.22;;
39792;SDS011;26080;42.264;24.536;2023-02-28T08:02:23;4.75;;;2.10;;
39792;SDS011;26080;42.264;24.536;2023-02-28T08:04:49;2.83;;;2.40;;
39792;SDS011;26080;42.264;24.536;2023-02-28T08:07:15;4.38;;;3.30;;
39792;SDS011;26080;42.264;24.536;2023-02-28T08:09:42;3.88;;;2.28;;
39792;SDS011;26080;42.264;24.536;2023-02-28T08:12:08;6.18;;;3.00;;
39792;SDS011;26080;42.264;24.536;2023-02-28T08:14:35;2.35;;;2.13;;
39792;SDS011;26080;42.264;24.536;2023-02-28T08:17:01;6.03;;;2.90;;
39792;SDS011;26080;42.264;24.536;2023-02-28T08:19:27;4.53;;;2.58;;
39792;SDS011;26080;42.264;24.536;2023-02-28T08:21:53;2.97;;;1.48;;
39792;SDS011;26080;42.264;24.536;2023-02-28T08:24:18;4.50;;;2.50;;
39792;SDS011;26080;42.264;24.536;2023-02-28T08:26:44;3.22;;;2.63;;
39792;SDS011;26080;42.264;24.536;2023-02-28T08:29:09;9.82;;;3.75;;
39792;SDS011;26080;42.264;24.536;2023-02-28T08:31:35;3.42;;;3.13;;
39792;SDS011;26080;42.264;24.536;2023-02-28T08:34:11;6.63;;;2.90;;
39792;SDS011;26080;42.264;24.536;2023-02-28T08:36:39;7.05;;;3.63;;
39792;SDS011;26080;42.264;24.536;2023-02-28T08:39:05;5.65;;;2.92;;
39792;SDS011;26080;42.264;24.536;2023-02-28T08:41:31;5.22;;;3.72;;
39792;SDS011;26080;42.264;24.536;2023-02-28T08:43:57;4.80;;;2.50;;
39792;SDS011;26080;42.264;24.536;2023-02-28T08:46:23;8.18;;;3.08;;
39792;SDS011;26080;42.264;24.536;2023-02-28T08:48:52;7.13;;;3.03;;
39792;SDS011;26080;42.264;24.536;2023-02-28T08:51:19;8.80;;;4.40;;
39792;SDS011;26080;42.264;24.536;2023-02-28T08:53:55;2.92;;;2.38;;
39792;SDS011;26080;42.264;24.536;2023-02-28T08:56:22;5.75;;;3.20;;
39792;SDS011;26080;42.264;24.536;2023-02-28T08:58:49;19.42;;;4.20;;
39792;SDS011;26080;42.264;24.536;2023-02-28T09:01:16;6.50;;;3.05;;
39792;SDS011;26080;42.264;24.536;2023-02-28T09:03:46;4.00;;;2.88;;
39792;SDS011;26080;42.264;24.536;2023-02-28T09:06:13;4.72;;;3.25;;
39792;SDS011;26080;42.264;24.536;2023-02-28T09:08:39;4.70;;;3.30;;
39792;SDS011;26080;42.264;24.536;2023-02-28T09:11:05;7.00;;;2.35;;
39792;SDS011;26080;42.264;24.536;2023-02-28T09:13:32;4.55;;;3.28;;
39792;SDS011;26080;42.264;24.536;2023-02-28T09:15:59;4.40;;;2.38;;
39792;SDS011;26080;42.264;24.536;2023-02-28T09:18:26;6.72;;;3.25;;
39792;SDS011;26080;42.264;24.536;2023-02-28T09:20:52;5.10;;;3.28;;
39792;SDS011;26080;42.264;24.536;2023-02-28T09:23:18;7.65;;;4.80;;
39792;SDS011;26080;42.264;24.536;2023-02-28T09:25:50;8.55;;;3.78;;
39792;SDS011;26080;42.264;24.536;2023-02-28T09:28:18;5.00;;;3.83;;
39792;SDS011;26080;42.264;24.536;2023-02-28T09:30:45;4.78;;;3.47;;
39792;SDS011;26080;42.264;24.536;2023-02-28T09:33:15;2.80;;;2.60;;
39792;SDS011;26080;42.264;24.536;2023-02-28T09:35:42;9.15;;;3.58;;
39792;SDS011;26080;42.264;24.536;2023-02-28T09:38:08;9.25;;;4.30;;
39792;SDS011;26080;42.264;24.536;2023-02-28T09:40:57;11.77;;;4.78;;
39792;SDS011;26080;42.264;24.536;2023-02-28T09:43:26;8.82;;;3.80;;
39792;SDS011;26080;42.264;24.536;2023-02-28T09:48:50;7.93;;;3.28;;
39792;SDS011;26080;42.264;24.536;2023-02-28T09:54:13;5.40;;;2.95;;
39792;SDS011;26080;42.264;24.536;2023-02-28T09:56:55;5.57;;;3.58;;
39792;SDS011;26080;42.264;24.536;2023-02-28T10:00:02;8.10;;;4.85;;
39792;SDS011;26080;42.264;24.536;2023-02-28T10:05:38;5.40;;;3.78;;
39792;SDS011;26080;42.264;24.536;2023-02-28T10:08:26;7.60;;;4.38;;
39792;SDS011;26080;42.264;24.536;2023-02-28T10:10:57;16.15;;;3.97;;
39792;SDS011;26080;42.264;24.536;2023-02-28T10:14:10;10.60;;;4.72;;
39792;SDS011;26080;42.264;24.536;2023-02-28T10:18:54;9.13;;;3.67;;
39792;SDS011;26080;42.264;24.536;2023-02-28T10:21:35;8.30;;;4.50;;
39792;SDS011;26080;42.264;24.536;2023-02-28T10:24:11;10.68;;;5.40;;
39792;SDS011;26080;42.264;24.536;2023-02-28T10:26:45;5.90;;;4.18;;
39792;SDS011;26080;42.264;24.536;2023-02-28T10:29:12;4.22;;;3.15;;
39792;SDS011;26080;42.264;24.536;2023-02-28T10:31:38;6.60;;;3.97;;
39792;SDS011;26080;42.264;24.536;2023-02-28T10:34:04;8.20;;;4.18;;
39792;SDS011;26080;42.264;24.536;2023-02-28T10:36:31;7.20;;;3.38;;
39792;SDS011;26080;42.264;24.536;2023-02-28T10:38:57;4.72;;;3.30;;
39792;SDS011;26080;42.264;24.536;2023-02-28T10:44:14;5.05;;;4.55;;
39792;SDS011;26080;42.264;24.536;2023-02-28T10:46:40;9.07;;;4.55;;
39792;SDS011;26080;42.264;24.536;2023-02-28T10:49:20;7.82;;;4.80;;
39792;SDS011;26080;42.264;24.536;2023-02-28T10:51:49;7.18;;;3.33;;
39792;SDS011;26080;42.264;24.536;2023-02-28T10:54:33;8.68;;;4.55;;
39792;SDS011;26080;42.264;24.536;2023-02-28T10:57:17;19.83;;;5.90;;
39792;SDS011;26080;42.264;24.536;2023-02-28T10:59:50;5.43;;;3.72;;
39792;SDS011;26080;42.264;24.536;2023-02-28T11:02:31;13.65;;;5.20;;
39792;SDS011;26080;42.264;24.536;2023-02-28T11:04:56;9.68;;;4.97;;
39792;SDS011;26080;42.264;24.536;2023-02-28T11:07:22;7.32;;;4.63;;
39792;SDS011;26080;42.264;24.536;2023-02-28T11:09:53;5.82;;;3.15;;
39792;SDS011;26080;42.264;24.536;2023-02-28T11:12:32;13.68;;;4.38;;
39792;SDS011;26080;42.264;24.536;2023-02-28T11:15:06;4.75;;;3.50;;
39792;SDS011;26080;42.264;24.536;2023-02-28T11:20:24;9.43;;;3.35;;
39792;SDS011;26080;42.264;24.536;2023-02-28T11:22:51;9.00;;;3.42;;
39792;SDS011;26080;42.264;24.536;2023-02-28T11:25:30;22.25;;;5.00;;
39792;SDS011;26080;42.264;24.536;2023-02-28T11:28:00;7.70;;;4.10;;
39792;SDS011;26080;42.264;24.536;2023-02-28T11:30:39;15.13;;;4.72;;
39792;SDS011;26080;42.264;24.536;2023-02-28T11:35:52;4.43;;;3.30;;
39792;SDS011;26080;42.264;24.536;2023-02-28T11:38:20;15.93;;;7.68;;
39792;SDS011;26080;42.264;24.536;2023-02-28T11:49:01;7.95;;;3.15;;
39792;SDS011;26080;42.264;24.536;2023-02-28T11:51:33;9.75;;;5.00;;
39792;SDS011;26080;42.264;24.536;2023-02-28T12:05:53;5.93;;;4.88;;
39792;SDS011;26080;42.264;24.536;2023-02-28T12:08:26;7.78;;;5.93;;
39792;SDS011;26080;42.264;24.536;2023-02-28T12:19:02;9.52;;;5.32;;
39792;SDS011;26080;42.264;24.536;2023-02-28T12:21:36;6.43;;;5.55;;
39792;SDS011;26080;42.264;24.536;2023-02-28T12:27:26;8.55;;;5.35;;
39792;SDS011;26080;42.264;24.536;2023-02-28T12:29:59;15.30;;;5.00;;
39792;SDS011;26080;42.264;24.536;2023-02-28T12:32:39;5.85;;;4.90;;
39792;SDS011;26080;42.264;24.536;2023-02-28T12:37:41;5.95;;;5.20;;
39792;SDS011;26080;42.264;24.536;2023-02-28T12:40:15;5.82;;;4.97;;
39792;SDS011;26080;42.264;24.536;2023-02-28T12:42:51;6.38;;;5.20;;
39792;SDS011;26080;42.264;24.536;2023-02-28T12:45:26;7.50;;;4.75;;
39792;SDS011;26080;42.264;24.536;2023-02-28T12:48:04;11.77;;;4.03;;
39792;SDS011;26080;42.264;24.536;2023-02-28T12:50:33;26.80;;;7.15;;
39792;SDS011;26080;42.264;24.536;2023-02-28T12:56:24;7.45;;;3.80;;
39792;SDS011;26080;42.264;24.536;2023-02-28T12:59:03;8.52;;;4.50;;
39792;SDS011;26080;42.264;24.536;2023-02-28T13:01:57;10.13;;;3.78;;
39792;SDS011;26080;42.264;24.536;2023-02-28T13:10:00;10.90;;;6.10;;
39792;SDS011;26080;42.264;24.536;2023-02-28T13:12:29;12.52;;;6.57;;
39792;SDS011;26080;42.264;24.536;2023-02-28T13:15:16;14.65;;;4.28;;
39792;SDS011;26080;42.264;24.536;2023-02-28T13:17:53;8.68;;;4.72;;
39792;SDS011;26080;42.264;24.536;2023-02-28T13:20:25;7.72;;;4.60;;
39792;SDS011;26080;42.264;24.536;2023-02-28T13:22:54;8.00;;;3.75;;
39792;SDS011;26080;42.264;24.536;2023-02-28T13:27:51;9.32;;;3.75;;
39792;SDS011;26080;42.264;24.536;2023-02-28T13:33:27;7.97;;;5.20;;
39792;SDS011;26080;42.264;24.536;2023-02-28T13:38:41;14.07;;;5.40;;
39792;SDS011;26080;42.264;24.536;2023-02-28T13:46:36;12.75;;;5.68;;
39792;SDS011;26080;42.264;24.536;2023-02-28T13:56:55;9.13;;;4.97;;
39792;SDS011;26080;42.264;24.536;2023-02-28T14:07:15;4.88;;;3.85;;
39792;SDS011;26080;42.264;24.536;2023-02-28T14:09:54;6.05;;;4.68;;
39792;SDS011;26080;42.264;24.536;2023-02-28T14:15:28;6.53;;;4.28;;
39792;SDS011;26080;42.264;24.536;2023-02-28T14:17:55;9.48;;;5.35;;
39792;SDS011;26080;42.264;24.536;2023-02-28T14:20:25;4.45;;;4.05;;
39792;SDS011;26080;42.264;24.536;2023-02-28T14:25:58;13.48;;;6.13;;
39792;SDS011;26080;42.264;24.536;2023-02-28T14:31:29;8.25;;;5.70;;
39792;SDS011;26080;42.264;24.536;2023-02-28T14:36:58;6.15;;;4.03;;
39792;SDS011;26080;42.264;24.536;2023-02-28T14:39:27;14.68;;;4.57;;
39792;SDS011;26080;42.264;24.536;2023-02-28T14:41:55;5.93;;;5.03;;
39792;SDS011;26080;42.264;24.536;2023-02-28T14:46:59;7.30;;;4.07;;
39792;SDS011;26080;42.264;24.536;2023-02-28T14:49:32;11.50;;;5.15;;
39792;SDS011;26080;42.264;24.536;2023-02-28T14:54:36;10.85;;;4.65;;
39792;SDS011;26080;42.264;24.536;2023-02-28T14:57:02;12.10;;;4.70;;
39792;SDS011;26080;42.264;24.536;2023-02-28T14:59:30;15.35;;;4.80;;
39792;SDS011;26080;42.264;24.536;2023-02-28T15:04:57;5.65;;;3.47;;
39792;SDS011;26080;42.264;24.536;2023-02-28T15:07:24;4.13;;;3.10;;
39792;SDS011;26080;42.264;24.536;2023-02-28T15:12:56;6.68;;;3.75;;
39792;SDS011;26080;42.264;24.536;2023-02-28T15:15:22;5.75;;;3.85;;
39792;SDS011;26080;42.264;24.536;2023-02-28T15:18:30;5.85;;;3.38;;
39792;SDS011;26080;42.264;24.536;2023-02-28T15:21:03;5.33;;;4.37;;
39792;SDS011;26080;42.264;24.536;2023-02-28T15:23:36;12.35;;;5.18;;
39792;SDS011;26080;42.264;24.536;2023-02-28T15:26:03;3.97;;;2.97;;
39792;SDS011;26080;42.264;24.536;2023-02-28T15:28:29;8.65;;;5.20;;
39792;SDS011;26080;42.264;24.536;2023-02-28T15:30:59;7.85;;;3.75;;
39792;SDS011;26080;42.264;24.536;2023-02-28T15:33:31;5.25;;;4.30;;
39792;SDS011;26080;42.264;24.536;2023-02-28T15:38:40;3.53;;;2.83;;
39792;SDS011;26080;42.264;24.536;2023-02-28T15:41:28;5.25;;;2.60;;
39792;SDS011;26080;42.264;24.536;2023-02-28T15:49:43;5.75;;;3.30;;
39792;SDS011;26080;42.264;24.536;2023-02-28T15:52:22;5.80;;;4.18;;
39792;SDS011;26080;42.264;24.536;2023-02-28T15:54:56;3.13;;;2.55;;
39792;SDS011;26080;42.264;24.536;2023-02-28T15:57:27;2.72;;;1.98;;
39792;SDS011;26080;42.264;24.536;2023-02-28T16:00:01;5.10;;;2.67;;
39792;SDS011;26080;42.264;24.536;2023-02-28T16:02:35;5.88;;;2.47;;
39792;SDS011;26080;42.264;24.536;2023-02-28T16:05:17;3.20;;;2.20;;
39792;SDS011;26080;42.264;24.536;2023-02-28T16:07:53;7.75;;;4.13;;
39792;SDS011;26080;42.264;24.536;2023-02-28T16:10:20;3.55;;;2.65;;
39792;SDS011;26080;42.264;24.536;2023-02-28T16:12:50;5.00;;;2.72;;
39792;SDS011;26080;42.264;24.536;2023-02-28T16:15:24;17.63;;;4.18;;
39792;SDS011;26080;42.264;24.536;2023-02-28T16:17:54;3.83;;;2.30;;
39792;SDS011;26080;42.264;24.536;2023-02-28T16:20:21;2.83;;;2.60;;
39792;SDS011;26080;42.264;24.536;2023-02-28T16:22:48;4.65;;;3.15;;
39792;SDS011;26080;42.264;24.536;2023-02-28T16:25:14;5.22;;;3.33;;
39792;SDS011;26080;42.264;24.536;2023-02-28T16:27:42;6.43;;;4.10;;
39792;SDS011;26080;42.264;24.536;2023-02-28T16:30:15;7.00;;;3.72;;
39792;SDS011;26080;42.264;24.536;2023-02-28T16:32:44;6.60;;;3.10;;
39792;SDS011;26080;42.264;24.536;2023-02-28T16:35:10;3.60;;;2.72;;
39792;SDS011;26080;42.264;24.536;2023-02-28T16:37:35;5.65;;;4.50;;
39792;SDS011;26080;42.264;24.536;2023-02-28T16:40:02;6.22;;;2.63;;
39792;SDS011;26080;42.264;24.536;2023-02-28T16:42:28;11.57;;;3.03;;
39792;SDS011;26080;42.264;24.536;2023-02-28T16:44:54;5.38;;;4.03;;
39792;SDS011;26080;42.264;24.536;2023-02-28T16:47:20;6.28;;;3.00;;
39792;SDS011;26080;42.264;24.536;2023-02-28T16:49:46;4.18;;;2.92;;
39792;SDS011;26080;42.264;24.536;2023-02-28T16:52:13;3.42;;;3.00;;
39792;SDS011;26080;42.264;24.536;2023-02-28T16:54:39;4.63;;;3.58;;
39792;SDS011;26080;42.264;24.536;2023-02-28T16:57:05;5.30;;;3.53;;
39792;SDS011;26080;42.264;24.536;2023-02-28T16:59:31;4.57;;;2.67;;
39792;SDS011;26080;42.264;24.536;2023-02-28T17:01:57;3.92;;;3.33;;
39792;SDS011;26080;42.264;24.536;2023-02-28T17:04:26;7.57;;;2.70;;
39792;SDS011;26080;42.264;24.536;2023-02-28T17:06:52;5.80;;;3.70;;
39792;SDS011;26080;42.264;24.536;2023-02-28T17:09:19;7.10;;;2.92;;
39792;SDS011;26080;42.264;24.536;2023-02-28T17:11:47;5.65;;;3.28;;
39792;SDS011;26080;42.264;24.536;2023-02-28T17:14:13;4.40;;;3.17;;
39792;SDS011;26080;42.264;24.536;2023-02-28T17:16:39;9.77;;;3.08;;
39792;SDS011;26080;42.264;24.536;2023-02-28T17:19:06;8.65;;;3.90;;
39792;SDS011;26080;42.264;24.536;2023-02-28T17:21:34;7.50;;;4.18;;
39792;SDS011;26080;42.264;24.536;2023-02-28T17:23:59;4.72;;;2.10;;
39792;SDS011;26080;42.264;24.536;2023-02-28T17:26:25;6.53;;;3.45;;
39792;SDS011;26080;42.264;24.536;2023-02-28T17:28:51;15.35;;;3.47;;
39792;SDS011;26080;42.264;24.536;2023-02-28T17:31:19;1.95;;;1.48;;
39792;SDS011;26080;42.264;24.536;2023-02-28T17:33:45;5.18;;;2.08;;